Terminal Aerodrome Forecast
Issued by NWS Riverton, WY

Home | Current Version | Previous Version | Text Only | Print | Product List | Glossary On
Versions: 1 2 3 4 5 6 7 8 9 10 11 12 13 14 15 16 17 18 19 20
000
FTUS45 KRIW 241140
TAFRIW
TAF
KRIW 241140Z 2412/2512 03010KT P6SM VCSH SCT024 OVC035
      TEMPO 2413/2416 6SM -RA BKN024
     FM241600 02013KT 5SM -RA SCT006 OVC011
      TEMPO 2416/2419 3SM -SN OVC006
     FM250200 36011KT 6SM -RA OVC011
     FM250500 32008KT P6SM -RA OVC016=

USA.gov is the U.S. government's official web portal to all federal, state and local government web resources and services.